Time;durP1;ratioP1;P1;durP2;ratioP2;P2;SDS_P1;SDS_P2;PMS_P1;PMS_P2;Temp;Humidity;BMP_temperature;BMP_pressure;BME280_temperature;BME280_humidity;BME280_pressure;Samples;Min_cycle;Max_cycle;Signal;HPM_P1;HPM_P2
2023/09/03 00:01:18;;;;;;;40.50;23.63;;;17.10;99.90;;;;;;5031501;28;20029;-64
2023/09/03 00:03:43;;;;;;;44.55;24.60;;;17.00;99.90;;;;;;5038901;28;20136;-65
2023/09/03 00:06:09;;;;;;;44.20;27.20;;;17.00;99.90;;;;;;5033942;28;20068;-65
2023/09/03 00:08:34;;;;;;;40.22;24.77;;;17.00;99.90;;;;;;5038210;28;20044;-65
2023/09/03 00:11:00;;;;;;;44.97;25.55;;;17.00;99.90;;;;;;5039827;28;20107;-66
2023/09/03 00:13:25;;;;;;;48.85;25.92;;;17.00;99.90;;;;;;5039902;28;20025;-65
2023/09/03 00:15:51;;;;;;;42.75;25.27;;;17.00;99.90;;;;;;5034278;28;20468;-65
2023/09/03 00:18:17;;;;;;;38.53;23.13;;;17.00;99.90;;;;;;5036463;28;20022;-64
2023/09/03 00:21:00;;;;;;;34.60;22.45;;;17.00;99.90;;;;;;5039912;28;20097;-65
2023/09/03 00:23:27;;;;;;;37.92;23.35;;;17.00;99.90;;;;;;5035939;28;20025;-65
2023/09/03 00:25:52;;;;;;;42.03;24.35;;;16.90;99.90;;;;;;5035669;28;20090;-64
2023/09/03 00:28:18;;;;;;;40.78;22.80;;;16.80;99.90;;;;;;5042067;28;20108;-65
2023/09/03 00:30:43;;;;;;;38.85;22.60;;;16.80;99.90;;;;;;5039884;28;20037;-64
2023/09/03 00:33:09;;;;;;;38.88;22.67;;;16.80;99.90;;;;;;5041630;28;20029;-65
2023/09/03 00:35:34;;;;;;;36.55;22.83;;;16.80;99.90;;;;;;5046162;28;20045;-65
2023/09/03 00:38:00;;;;;;;34.00;21.20;;;16.80;99.90;;;;;;5043969;28;20097;-65
2023/09/03 00:40:26;;;;;;;37.90;22.88;;;16.80;99.90;;;;;;5035683;28;20037;-65
2023/09/03 00:42:51;;;;;;;47.10;22.95;;;16.80;99.90;;;;;;5040953;28;20071;-65
2023/09/03 00:45:17;;;;;;;40.10;21.80;;;16.80;99.90;;;;;;5034919;28;20407;-65
2023/09/03 00:47:42;;;;;;;38.17;23.15;;;16.70;99.90;;;;;;5035723;28;20482;-65
2023/09/03 00:50:09;;;;;;;43.50;23.52;;;16.70;99.90;;;;;;5044640;28;20039;-64
2023/09/03 00:52:35;;;;;;;39.63;23.23;;;16.70;99.90;;;;;;5036632;28;20104;-65
2023/09/03 00:55:01;;;;;;;41.72;22.42;;;16.60;99.90;;;;;;5036097;28;20117;-65
2023/09/03 00:57:28;;;;;;;47.20;23.25;;;16.60;99.90;;;;;;5035149;28;20470;-64
2023/09/03 00:59:56;;;;;;;49.28;24.25;;;16.60;99.90;;;;;;5041448;28;20394;-65
2023/09/03 01:02:22;;;;;;;46.50;24.00;;;16.60;99.90;;;;;;5038492;28;20041;-64
2023/09/03 01:04:48;;;;;;;42.17;23.98;;;16.70;99.90;;;;;;5035780;28;20075;-64
2023/09/03 01:07:14;;;;;;;48.30;25.15;;;16.60;99.90;;;;;;5038687;28;20060;-65
2023/09/03 01:09:40;;;;;;;49.35;25.92;;;16.60;99.90;;;;;;5040107;28;20041;-65
2023/09/03 01:12:32;;;;;;;52.80;27.73;;;16.70;99.90;;;;;;5037243;28;20024;-64
2023/09/03 01:15:14;;;;;;;55.53;25.45;;;16.60;99.90;;;;;;5033565;28;20513;-65
2023/09/03 01:17:48;;;;;;;51.65;24.50;;;16.60;99.90;;;;;;5032180;28;20235;-64
2023/09/03 01:20:31;;;;;;;42.28;24.70;;;16.40;99.90;;;;;;5037489;28;20071;-65
2023/09/03 01:23:12;;;;;;;55.05;26.13;;;16.40;99.90;;;;;;5036476;28;20041;-65
2023/09/03 01:26:05;;;;;;;49.85;26.42;;;16.40;99.90;;;;;;5039073;28;20021;-65
2023/09/03 01:28:34;;;;;;;55.10;28.55;;;16.40;99.90;;;;;;5040745;28;20088;-64
2023/09/03 01:31:23;;;;;;;50.00;27.65;;;16.40;99.90;;;;;;5038028;28;20052;-64
2023/09/03 01:33:48;;;;;;;61.20;28.73;;;16.40;99.90;;;;;;5039831;28;20025;-65
2023/09/03 01:36:15;;;;;;;54.30;28.13;;;16.40;99.90;;;;;;5042175;28;20040;-64
2023/09/03 01:38:40;;;;;;;52.60;27.13;;;16.40;99.90;;;;;;5031031;28;20251;-64
2023/09/03 01:41:07;;;;;;;56.88;28.15;;;16.30;99.90;;;;;;5042299;28;20029;-64
2023/09/03 01:43:33;;;;;;;56.85;29.95;;;16.30;99.90;;;;;;5040021;28;20033;-65
2023/09/03 01:46:06;;;;;;;56.70;29.50;;;16.20;99.90;;;;;;5035133;28;20064;-64
2023/09/03 01:49:02;;;;;;;56.83;28.13;;;16.20;99.90;;;;;;5030963;28;20020;-64
2023/09/03 01:51:56;;;;;;;55.92;29.25;;;16.20;99.90;;;;;;5034012;28;20033;-64
2023/09/03 01:54:28;;;;;;;56.30;30.75;;;16.10;99.90;;;;;;5040920;28;20025;-65
2023/09/03 01:57:12;;;;;;;55.58;28.60;;;16.10;99.90;;;;;;5041638;28;20029;-64
2023/09/03 01:59:48;;;;;;;63.40;30.35;;;16.10;99.90;;;;;;5037495;28;20072;-64
2023/09/03 02:02:16;;;;;;;56.40;28.40;;;16.20;99.90;;;;;;5040765;28;20383;-64
2023/09/03 02:04:42;;;;;;;54.55;28.67;;;16.20;99.90;;;;;;5040102;28;20411;-64
2023/09/03 02:07:08;;;;;;;55.30;29.30;;;16.20;99.90;;;;;;5040746;28;20024;-65
2023/09/03 02:09:33;;;;;;;59.88;29.88;;;16.10;99.90;;;;;;5040587;28;20094;-65
2023/09/03 02:11:59;;;;;;;59.15;28.27;;;16.20;99.90;;;;;;5039029;28;20018;-64
2023/09/03 02:14:26;;;;;;;61.45;30.45;;;16.20;99.90;;;;;;5043328;28;20028;-64
2023/09/03 02:16:52;;;;;;;55.17;29.17;;;16.30;99.90;;;;;;5039612;28;20020;-65
2023/09/03 02:19:17;;;;;;;60.55;28.30;;;16.30;99.90;;;;;;5040248;28;20044;-65
2023/09/03 02:21:43;;;;;;;58.67;30.13;;;16.30;99.90;;;;;;5040243;28;20037;-64
2023/09/03 02:24:08;;;;;;;63.25;31.60;;;16.30;99.90;;;;;;5040690;28;20025;-64
2023/09/03 02:26:44;;;;;;;58.72;30.20;;;16.20;99.90;;;;;;5037540;28;20029;-65
2023/09/03 02:29:10;;;;;;;63.75;31.50;;;16.10;99.90;;;;;;5038485;28;20372;-65
2023/09/03 02:31:36;;;;;;;66.20;30.55;;;16.10;99.90;;;;;;5039460;28;20029;-65
2023/09/03 02:34:03;;;;;;;64.15;30.50;;;16.10;99.90;;;;;;5036997;28;20018;-65
2023/09/03 02:36:30;;;;;;;66.15;29.25;;;16.00;99.90;;;;;;5042200;28;20025;-65
2023/09/03 02:39:03;;;;;;;67.45;31.48;;;16.00;99.90;;;;;;5041920;28;20376;-65
2023/09/03 02:41:31;;;;;;;59.38;28.90;;;16.00;99.90;;;;;;5040134;28;20033;-65
2023/09/03 02:43:58;;;;;;;62.20;28.15;;;16.00;99.90;;;;;;5037980;28;20372;-65
2023/09/03 02:46:24;;;;;;;72.00;32.65;;;16.00;99.90;;;;;;5041466;28;20067;-65
2023/09/03 02:48:50;;;;;;;62.97;31.60;;;16.00;99.90;;;;;;5038325;28;20039;-65
2023/09/03 02:51:16;;;;;;;66.57;30.67;;;16.00;99.90;;;;;;5041340;28;20403;-65
2023/09/03 02:53:43;;;;;;;73.25;32.17;;;16.00;99.90;;;;;;5040230;28;20052;-65
2023/09/03 02:56:09;;;;;;;63.17;32.00;;;15.90;99.90;;;;;;5041958;28;20024;-65
2023/09/03 02:58:35;;;;;;;68.22;31.90;;;15.90;99.90;;;;;;5037608;28;20034;-64
2023/09/03 03:01:12;;;;;;;70.45;32.40;;;15.90;99.90;;;;;;5052385;28;20072;-64
2023/09/03 03:03:38;;;;;;;64.93;31.58;;;15.80;99.90;;;;;;5055868;28;20028;-64
2023/09/03 03:06:03;;;;;;;67.93;31.00;;;15.80;99.90;;;;;;5049748;28;20025;-64
2023/09/03 03:08:29;;;;;;;76.50;33.20;;;15.80;99.90;;;;;;5058725;28;20033;-64
2023/09/03 03:11:15;;;;;;;82.15;33.33;;;15.80;99.90;;;;;;5052700;28;20032;-64
2023/09/03 03:13:43;;;;;;;76.45;33.08;;;15.80;99.90;;;;;;5053890;28;20033;-64
2023/09/03 03:16:10;;;;;;;73.07;33.20;;;15.70;99.90;;;;;;5043714;28;20443;-65
2023/09/03 03:18:37;;;;;;;81.20;33.63;;;15.70;99.90;;;;;;5038304;28;20033;-64
2023/09/03 03:21:11;;;;;;;82.28;33.97;;;15.70;99.90;;;;;;5038752;28;20116;-65
2023/09/03 03:23:37;;;;;;;82.03;33.88;;;15.60;99.90;;;;;;5037785;28;20025;-64
2023/09/03 03:26:04;;;;;;;72.85;33.08;;;15.60;99.90;;;;;;5037291;28;20115;-65
2023/09/03 03:28:31;;;;;;;78.25;32.25;;;15.60;99.90;;;;;;5040540;28;20033;-65
2023/09/03 03:31:00;;;;;;;70.53;31.27;;;15.70;99.90;;;;;;5036204;28;20032;-64
2023/09/03 03:33:26;;;;;;;65.90;28.10;;;15.70;99.90;;;;;;5037641;28;20506;-66
2023/09/03 03:35:52;;;;;;;73.38;33.25;;;15.80;99.90;;;;;;5039497;28;20029;-65
2023/09/03 03:38:17;;;;;;;58.88;28.85;;;15.80;99.90;;;;;;5043070;28;20013;-64
2023/09/03 03:40:43;;;;;;;76.05;35.67;;;15.90;99.90;;;;;;5038929;28;20483;-64
2023/09/03 03:43:08;;;;;;;83.88;39.15;;;15.80;99.90;;;;;;5034950;28;20781;-64
2023/09/03 03:45:34;;;;;;;71.22;32.92;;;15.90;99.90;;;;;;5034095;28;20503;-64
2023/09/03 03:47:59;;;;;;;77.10;33.30;;;15.80;99.90;;;;;;5036073;28;20112;-64
2023/09/03 03:50:28;;;;;;;73.55;32.75;;;15.70;99.90;;;;;;5033054;28;20048;-64
2023/09/03 03:52:53;;;;;;;72.22;34.15;;;15.60;99.90;;;;;;5037433;28;20424;-64
2023/09/03 03:55:19;;;;;;;76.72;33.05;;;15.60;99.90;;;;;;5033909;28;20029;-64
2023/09/03 03:57:44;;;;;;;69.97;32.55;;;15.50;99.90;;;;;;5037550;28;20033;-66
2023/09/03 04:00:10;;;;;;;72.28;33.45;;;15.40;99.90;;;;;;5033795;28;20068;-66
2023/09/03 04:02:36;;;;;;;78.25;33.60;;;15.40;99.90;;;;;;5034458;28;20117;-66
2023/09/03 04:05:01;;;;;;;83.80;35.08;;;15.40;99.90;;;;;;5039091;28;20035;-66
2023/09/03 04:07:27;;;;;;;72.80;33.60;;;15.40;99.90;;;;;;5045116;28;20040;-66
2023/09/03 04:09:54;;;;;;;83.00;36.63;;;15.40;99.90;;;;;;5042096;28;20037;-66
2023/09/03 04:12:19;;;;;;;87.68;35.10;;;15.40;99.90;;;;;;5044688;28;20100;-66
2023/09/03 04:14:45;;;;;;;83.40;34.88;;;15.30;99.90;;;;;;5043904;28;20171;-65
2023/09/03 04:17:10;;;;;;;81.55;34.63;;;15.30;99.90;;;;;;5045692;28;20024;-65
2023/09/03 04:19:36;;;;;;;83.15;37.53;;;15.30;99.90;;;;;;5036987;28;20557;-65
2023/09/03 04:22:01;;;;;;;77.30;34.85;;;15.30;99.90;;;;;;5041330;28;20053;-65
2023/09/03 04:24:27;;;;;;;74.03;32.25;;;15.30;99.90;;;;;;5041243;28;20488;-66
2023/09/03 04:26:52;;;;;;;73.75;34.25;;;15.30;99.90;;;;;;5038639;28;20039;-65
2023/09/03 04:29:18;;;;;;;81.97;35.13;;;15.30;99.90;;;;;;5037844;28;20048;-65
2023/09/03 04:31:43;;;;;;;90.22;34.00;;;15.20;99.90;;;;;;5042930;28;20513;-64
2023/09/03 04:34:09;;;;;;;82.20;36.78;;;15.20;99.90;;;;;;5045600;28;20032;-64
2023/09/03 04:36:35;;;;;;;77.93;33.88;;;15.20;99.90;;;;;;5044225;28;20033;-65
2023/09/03 04:39:00;;;;;;;75.80;33.47;;;15.20;99.90;;;;;;5038700;28;20044;-66
2023/09/03 04:41:26;;;;;;;77.57;32.78;;;15.30;99.90;;;;;;5041170;28;20043;-64
2023/09/03 04:44:06;;;;;;;74.18;34.42;;;15.40;99.90;;;;;;5046201;28;20021;-65
2023/09/03 04:46:32;;;;;;;78.80;34.47;;;15.20;99.90;;;;;;5041325;28;20066;-64
2023/09/03 04:48:57;;;;;;;75.07;34.17;;;15.20;99.90;;;;;;5041884;28;20581;-65
2023/09/03 04:51:23;;;;;;;73.10;33.80;;;15.30;99.90;;;;;;5039735;28;20034;-64
2023/09/03 04:53:48;;;;;;;78.35;34.13;;;15.30;99.90;;;;;;5043890;28;20040;-65
2023/09/03 04:56:14;;;;;;;88.88;36.08;;;15.30;99.90;;;;;;5041834;28;20068;-65
2023/09/03 04:58:39;;;;;;;74.10;33.67;;;15.20;99.90;;;;;;5043832;28;20555;-64
2023/09/03 05:01:16;;;;;;;84.10;36.97;;;15.30;99.90;;;;;;5037093;28;20377;-64
2023/09/03 05:03:41;;;;;;;87.10;36.10;;;15.30;99.90;;;;;;5039132;28;20036;-64
2023/09/03 05:06:12;;;;;;;74.30;33.60;;;15.30;99.90;;;;;;5041578;28;20029;-65
2023/09/03 05:08:38;;;;;;;82.00;33.78;;;15.20;99.90;;;;;;5044217;28;20444;-65
2023/09/03 05:11:12;;;;;;;80.78;35.67;;;15.20;99.90;;;;;;5037277;28;20064;-64
2023/09/03 05:13:38;;;;;;;83.68;35.58;;;15.20;99.90;;;;;;5044191;28;20028;-64
2023/09/03 05:16:04;;;;;;;79.90;37.83;;;15.10;99.90;;;;;;5041987;28;20063;-64
2023/09/03 05:18:31;;;;;;;84.75;37.25;;;15.10;99.90;;;;;;5041496;28;20496;-65
2023/09/03 05:20:57;;;;;;;85.38;34.75;;;15.10;99.90;;;;;;5039941;28;20495;-64
2023/09/03 05:23:23;;;;;;;91.20;40.13;;;15.20;99.90;;;;;;5041539;28;20039;-65
2023/09/03 05:25:48;;;;;;;83.85;37.45;;;15.20;99.90;;;;;;5042237;28;20084;-65
2023/09/03 05:28:14;;;;;;;81.85;35.10;;;15.10;99.90;;;;;;5043042;28;20028;-64
2023/09/03 05:30:39;;;;;;;83.10;34.78;;;15.20;99.90;;;;;;5039542;28;20217;-66
2023/09/03 05:33:05;;;;;;;81.80;36.38;;;15.20;99.90;;;;;;5044205;28;20048;-66
2023/09/03 05:35:30;;;;;;;82.80;34.63;;;15.30;99.90;;;;;;5041022;28;20025;-66
2023/09/03 05:37:56;;;;;;;85.50;37.78;;;15.30;99.90;;;;;;5046183;28;20064;-66
2023/09/03 05:40:21;;;;;;;91.18;37.42;;;15.30;99.90;;;;;;5041398;28;20038;-66
2023/09/03 05:42:50;;;;;;;83.53;36.92;;;15.30;99.90;;;;;;5035930;28;20037;-65
2023/09/03 05:45:15;;;;;;;90.28;37.42;;;15.30;99.90;;;;;;5041205;28;20033;-66
2023/09/03 05:47:41;;;;;;;95.28;37.25;;;15.30;99.90;;;;;;5039689;28;20091;-66
2023/09/03 05:50:07;;;;;;;89.55;37.97;;;15.30;99.90;;;;;;5035586;28;20387;-66
2023/09/03 05:52:32;;;;;;;100.78;41.33;;;15.30;99.90;;;;;;5043049;28;20027;-65
2023/09/03 05:54:58;;;;;;;96.53;39.67;;;15.30;99.90;;;;;;5037193;28;20021;-64
2023/09/03 05:57:23;;;;;;;84.20;36.85;;;15.30;99.90;;;;;;5041748;28;20060;-66
2023/09/03 05:59:52;;;;;;;85.85;36.03;;;15.30;99.90;;;;;;5037676;28;20065;-65
2023/09/03 06:02:18;;;;;;;92.05;37.92;;;15.40;99.90;;;;;;5032778;28;20112;-64
2023/09/03 06:04:44;;;;;;;94.90;39.92;;;15.40;99.90;;;;;;5035738;28;20100;-65
2023/09/03 06:07:09;;;;;;;93.35;39.53;;;15.40;99.90;;;;;;5036212;28;20561;-65
2023/09/03 06:09:38;;;;;;;95.30;39.38;;;15.40;99.90;;;;;;5039003;28;20038;-64
2023/09/03 06:12:04;;;;;;;95.90;39.08;;;15.50;99.90;;;;;;5038812;28;20048;-65
2023/09/03 06:14:30;;;;;;;96.10;38.15;;;15.50;99.90;;;;;;5042313;28;20066;-65
2023/09/03 06:16:55;;;;;;;89.30;37.75;;;15.60;99.90;;;;;;5038783;28;20056;-65
2023/09/03 06:19:22;;;;;;;87.38;38.80;;;15.60;99.90;;;;;;5040205;28;20029;-65
2023/09/03 06:21:48;;;;;;;94.53;39.95;;;15.70;99.90;;;;;;5042865;28;20045;-64
2023/09/03 06:24:15;;;;;;;100.18;41.08;;;15.80;99.90;;;;;;5041117;28;20063;-65
2023/09/03 06:26:41;;;;;;;98.03;39.25;;;15.90;99.90;;;;;;5041486;28;20032;-65
2023/09/03 06:29:07;;;;;;;103.55;43.15;;;16.00;99.90;;;;;;5041293;28;20071;-65
2023/09/03 06:31:32;;;;;;;137.07;53.92;;;16.20;99.90;;;;;;5037811;28;20037;-64
2023/09/03 06:33:58;;;;;;;127.43;51.00;;;16.20;99.90;;;;;;5040867;28;20089;-64
2023/09/03 06:36:24;;;;;;;117.65;50.30;;;16.30;99.90;;;;;;5034046;28;20029;-67
2023/09/03 06:38:50;;;;;;;108.28;47.17;;;16.40;99.90;;;;;;5034165;28;20083;-65
2023/09/03 06:41:16;;;;;;;119.82;46.28;;;16.60;99.90;;;;;;5037135;28;20029;-67
2023/09/03 06:43:42;;;;;;;123.28;48.65;;;16.70;99.90;;;;;;5033619;28;20403;-65
2023/09/03 06:46:08;;;;;;;105.82;46.00;;;16.70;99.90;;;;;;5037436;28;20033;-64
2023/09/03 06:48:34;;;;;;;101.90;46.13;;;16.70;99.90;;;;;;5033417;28;20032;-64
2023/09/03 06:51:00;;;;;;;106.03;45.78;;;16.70;99.90;;;;;;5032239;28;20037;-66
2023/09/03 06:53:25;;;;;;;89.47;41.47;;;16.70;99.90;;;;;;5031062;28;20132;-64
2023/09/03 06:55:52;;;;;;;94.63;42.22;;;16.80;99.90;;;;;;5036068;28;20022;-64
2023/09/03 06:58:17;;;;;;;88.97;43.28;;;16.80;99.90;;;;;;5039750;28;20082;-65
2023/09/03 07:00:43;;;;;;;103.53;44.88;;;16.80;99.90;;;;;;5043068;28;20777;-65
2023/09/03 07:03:09;;;;;;;85.72;41.50;;;16.80;99.90;;;;;;5036360;28;20029;-65
2023/09/03 07:05:34;;;;;;;88.93;40.25;;;16.80;99.90;;;;;;5040625;28;20087;-65
2023/09/03 07:08:00;;;;;;;90.70;41.67;;;17.00;99.90;;;;;;5046385;28;20376;-65
2023/09/03 07:10:26;;;;;;;86.43;39.85;;;17.00;99.90;;;;;;5037500;28;20079;-65
2023/09/03 07:12:51;;;;;;;77.57;39.08;;;17.10;99.90;;;;;;5033522;28;20025;-65
2023/09/03 07:15:17;;;;;;;79.90;36.90;;;17.20;99.90;;;;;;5034090;28;20032;-65
2023/09/03 07:17:42;;;;;;;79.57;38.65;;;17.30;99.90;;;;;;5038602;28;20034;-65
2023/09/03 07:20:08;;;;;;;69.65;36.63;;;17.20;99.90;;;;;;5041544;28;20056;-66
2023/09/03 07:22:34;;;;;;;73.38;36.53;;;17.20;99.90;;;;;;5040591;28;20032;-65
2023/09/03 07:24:59;;;;;;;62.22;33.83;;;17.30;99.90;;;;;;5040313;28;20124;-66
2023/09/03 07:27:25;;;;;;;67.78;35.08;;;17.40;99.90;;;;;;5033582;28;20033;-65
2023/09/03 07:29:52;;;;;;;66.07;34.88;;;17.40;99.90;;;;;;5035421;28;20067;-65
2023/09/03 07:32:19;;;;;;;62.28;33.47;;;17.40;99.90;;;;;;5034603;28;20021;-65
2023/09/03 07:34:45;;;;;;;62.30;31.85;;;17.50;99.90;;;;;;5039166;28;20036;-65
2023/09/03 07:37:11;;;;;;;67.55;33.75;;;17.50;99.90;;;;;;5034346;28;20372;-65
2023/09/03 07:39:36;;;;;;;62.80;32.58;;;17.50;99.90;;;;;;5043016;28;20032;-65
2023/09/03 07:42:02;;;;;;;64.50;34.72;;;17.70;99.90;;;;;;5036585;28;20398;-66
2023/09/03 07:44:27;;;;;;;60.47;32.88;;;17.70;99.90;;;;;;5033696;28;20390;-64
2023/09/03 07:46:53;;;;;;;68.25;35.55;;;17.70;99.90;;;;;;5038998;28;20033;-65
2023/09/03 07:49:18;;;;;;;63.15;34.10;;;17.50;99.90;;;;;;5036296;28;20026;-65
2023/09/03 07:51:44;;;;;;;70.13;36.03;;;17.50;99.90;;;;;;5040537;28;20047;-65
2023/09/03 07:54:09;;;;;;;68.00;34.58;;;17.50;99.90;;;;;;5037589;28;20105;-66
2023/09/03 07:56:35;;;;;;;70.22;36.42;;;17.50;99.90;;;;;;5029419;28;20100;-66
2023/09/03 07:59:01;;;;;;;75.90;37.35;;;17.50;99.90;;;;;;5036225;28;20025;-65
2023/09/03 08:01:26;;;;;;;79.35;38.28;;;17.30;99.90;;;;;;5036881;28;20028;-66
2023/09/03 08:03:52;;;;;;;66.22;35.65;;;17.50;99.90;;;;;;5042041;28;20025;-66
2023/09/03 08:06:17;;;;;;;73.50;35.33;;;17.50;99.90;;;;;;5036092;28;20025;-65
2023/09/03 08:08:43;;;;;;;65.72;35.28;;;17.50;99.90;;;;;;5034275;28;20029;-65
2023/09/03 08:11:09;;;;;;;73.90;35.47;;;17.60;99.90;;;;;;5042023;28;20056;-65
2023/09/03 08:13:34;;;;;;;69.10;33.65;;;17.50;99.90;;;;;;5036611;28;20484;-65
2023/09/03 08:16:00;;;;;;;58.78;31.13;;;17.50;99.90;;;;;;5048437;28;20078;-65
2023/09/03 08:18:25;;;;;;;64.63;33.28;;;17.50;99.90;;;;;;5046655;28;20029;-66
2023/09/03 08:20:51;;;;;;;62.67;32.45;;;17.50;99.90;;;;;;5046352;28;20119;-65
2023/09/03 08:23:18;;;;;;;68.28;34.75;;;17.60;99.90;;;;;;5046446;28;20100;-64
2023/09/03 08:25:44;;;;;;;63.95;32.88;;;17.40;99.90;;;;;;5032571;28;20414;-65
2023/09/03 08:28:10;;;;;;;55.95;30.50;;;17.20;99.90;;;;;;5039883;28;20064;-65
2023/09/03 08:30:36;;;;;;;62.50;30.30;;;17.40;99.90;;;;;;5038319;28;20060;-66
2023/09/03 08:33:02;;;;;;;52.72;25.42;;;17.50;99.90;;;;;;5038991;28;20029;-66
2023/09/03 08:35:28;;;;;;;51.78;28.45;;;17.70;99.90;;;;;;5036868;28;20022;-65
2023/09/03 08:37:54;;;;;;;48.25;26.15;;;17.80;99.90;;;;;;5039733;28;20025;-66
2023/09/03 08:40:20;;;;;;;53.13;28.65;;;17.90;99.90;;;;;;5038044;28;20033;-66
2023/09/03 08:42:49;;;;;;;54.55;26.85;;;18.00;99.90;;;;;;5038696;28;20032;-66
2023/09/03 08:45:18;;;;;;;48.25;26.13;;;18.10;99.90;;;;;;5032657;28;20029;-65
2023/09/03 08:47:45;;;;;;;50.50;27.42;;;18.20;99.90;;;;;;5034314;28;20040;-66
2023/09/03 08:50:12;;;;;;;53.90;28.50;;;18.10;99.90;;;;;;5037230;28;20032;-65
2023/09/03 08:52:38;;;;;;;52.92;28.60;;;17.90;99.90;;;;;;5040817;28;20482;-66
2023/09/03 08:55:05;;;;;;;54.90;28.83;;;18.00;99.90;;;;;;5039036;28;20021;-66
2023/09/03 08:57:34;;;;;;;56.20;30.83;;;18.00;99.90;;;;;;5036442;28;20108;-66
2023/09/03 09:00:07;;;;;;;57.80;30.48;;;18.00;99.90;;;;;;5042339;28;20487;-65
2023/09/03 09:02:34;;;;;;;56.00;28.90;;;18.00;99.90;;;;;;5040425;28;20566;-65
2023/09/03 09:05:05;;;;;;;51.63;28.77;;;18.10;99.90;;;;;;5045859;28;20029;-66
2023/09/03 09:07:31;;;;;;;51.63;28.60;;;18.10;99.90;;;;;;5040265;28;20037;-66
2023/09/03 09:10:01;;;;;;;51.78;28.90;;;18.30;99.90;;;;;;5042626;28;20376;-66
2023/09/03 09:12:41;;;;;;;49.53;27.10;;;18.60;99.90;;;;;;5043866;28;20078;-66
2023/09/03 09:15:07;;;;;;;43.88;23.70;;;18.70;99.90;;;;;;5042561;28;20086;-65
2023/09/03 09:17:43;;;;;;;41.58;25.40;;;18.90;99.90;;;;;;5036652;28;20104;-66
2023/09/03 09:20:12;;;;;;;41.97;24.38;;;18.90;99.90;;;;;;5042855;28;20032;-64
2023/09/03 09:22:48;;;;;;;47.63;27.77;;;18.90;99.90;;;;;;5041646;28;20484;-65
2023/09/03 09:25:21;;;;;;;46.08;25.10;;;18.70;99.90;;;;;;5040531;28;20029;-66
2023/09/03 09:27:48;;;;;;;43.70;25.35;;;18.80;99.90;;;;;;5042683;28;20041;-65
2023/09/03 09:30:16;;;;;;;48.47;25.50;;;19.00;99.90;;;;;;5041589;28;20032;-65
2023/09/03 09:32:43;;;;;;;42.42;23.13;;;19.10;99.90;;;;;;5041486;28;20558;-64
2023/09/03 09:35:09;;;;;;;37.75;22.50;;;19.20;99.90;;;;;;5038138;28;20018;-65
2023/09/03 09:37:42;;;;;;;36.42;21.77;;;19.30;99.90;;;;;;5042551;28;20032;-65
2023/09/03 09:40:08;;;;;;;41.03;21.67;;;19.20;99.90;;;;;;5037882;28;20705;-66
2023/09/03 09:42:36;;;;;;;47.63;23.58;;;19.30;99.90;;;;;;5036407;28;20104;-65
2023/09/03 09:45:02;;;;;;;46.35;25.42;;;19.50;99.90;;;;;;5037241;28;20112;-65
2023/09/03 09:47:28;;;;;;;40.97;24.02;;;19.40;99.90;;;;;;5041056;28;20124;-65
2023/09/03 09:49:54;;;;;;;48.15;27.60;;;19.60;99.90;;;;;;5039810;28;20579;-66
2023/09/03 09:52:20;;;;;;;41.70;24.80;;;19.60;99.90;;;;;;5038149;28;20029;-67
2023/09/03 09:54:47;;;;;;;51.35;29.33;;;19.90;99.90;;;;;;5036003;28;20028;-65
2023/09/03 09:57:16;;;;;;;53.63;29.42;;;19.80;99.90;;;;;;5041416;28;20025;-65
2023/09/03 09:59:51;;;;;;;51.80;29.10;;;19.30;99.90;;;;;;5033627;28;20017;-65
2023/09/03 10:02:19;;;;;;;51.20;30.15;;;19.10;99.90;;;;;;5036641;28;20067;-65
2023/09/03 10:04:49;;;;;;;48.83;27.45;;;19.00;99.90;;;;;;5034771;28;20105;-65
2023/09/03 10:07:15;;;;;;;42.25;26.00;;;19.30;99.90;;;;;;5040350;28;20021;-65
2023/09/03 10:09:43;;;;;;;41.88;25.05;;;19.60;99.90;;;;;;5041132;28;20053;-65
2023/09/03 10:12:10;;;;;;;43.65;25.85;;;20.00;99.90;;;;;;5036097;28;20035;-65
2023/09/03 10:14:36;;;;;;;45.05;27.20;;;20.40;99.90;;;;;;5037039;28;20486;-65
2023/09/03 10:17:04;;;;;;;36.75;22.05;;;20.60;99.90;;;;;;5041077;28;20026;-65
2023/09/03 10:19:49;;;;;;;34.97;23.85;;;20.90;99.90;;;;;;5039058;28;20154;-65
2023/09/03 10:22:16;;;;;;;36.53;22.45;;;20.90;99.90;;;;;;5029256;28;20464;-66
2023/09/03 10:25:00;;;;;;;39.58;23.65;;;20.80;99.90;;;;;;5037209;28;20109;-64
2023/09/03 10:27:29;;;;;;;34.43;21.00;;;20.90;99.90;;;;;;5037271;28;20056;-66
2023/09/03 10:29:58;;;;;;;31.90;20.02;;;21.30;99.90;;;;;;5039410;28;20487;-66
2023/09/03 10:32:25;;;;;;;36.80;21.60;;;21.40;99.90;;;;;;5029125;28;20037;-65
2023/09/03 10:34:51;;;;;;;33.67;20.67;;;21.20;99.90;;;;;;5033842;28;20022;-65
2023/09/03 10:37:16;;;;;;;33.03;19.85;;;21.20;99.90;;;;;;5036090;28;20516;-65
2023/09/03 10:39:46;;;;;;;34.95;20.85;;;21.70;99.90;;;;;;5031556;28;20053;-65
2023/09/03 10:42:23;;;;;;;26.95;16.75;;;21.50;99.90;;;;;;5035583;28;20026;-65
2023/09/03 10:44:57;;;;;;;30.33;19.75;;;21.90;99.90;;;;;;5036291;28;20078;-65
2023/09/03 10:47:22;;;;;;;25.33;15.82;;;21.80;99.90;;;;;;5035094;28;20028;-65
2023/09/03 10:49:52;;;;;;;26.10;15.43;;;22.00;99.90;;;;;;5032412;28;20025;-65
2023/09/03 10:52:28;;;;;;;18.98;13.25;;;22.00;99.90;;;;;;5042509;28;20032;-65
2023/09/03 10:55:20;;;;;;;16.27;10.82;;;22.50;99.90;;;;;;5034998;28;20038;-65
2023/09/03 10:57:48;;;;;;;15.23;10.85;;;22.50;99.90;;;;;;5030609;28;20029;-65
2023/09/03 11:00:20;;;;;;;20.23;13.30;;;22.50;99.90;;;;;;5040362;28;20022;-65
2023/09/03 11:02:46;;;;;;;20.20;13.35;;;22.70;99.90;;;;;;5044711;28;20039;-65
2023/09/03 11:05:26;;;;;;;16.17;10.95;;;22.90;99.90;;;;;;5043087;28;20071;-65
2023/09/03 11:08:31;;;;;;;20.27;13.32;;;22.90;99.90;;;;;;5045655;28;20483;-65
2023/09/03 11:10:58;;;;;;;24.08;11.27;;;22.80;99.90;;;;;;5036061;28;20112;-65
2023/09/03 11:13:24;;;;;;;13.52;9.20;;;22.80;99.90;;;;;;5033393;28;20052;-65
2023/09/03 11:15:52;;;;;;;9.13;7.07;;;22.80;99.90;;;;;;5031723;28;20494;-65
2023/09/03 11:18:20;;;;;;;10.23;4.70;;;23.00;99.90;;;;;;5030027;28;20027;-65
2023/09/03 11:20:46;;;;;;;7.07;5.25;;;23.00;99.90;;;;;;5032005;28;20021;-65
2023/09/03 11:23:13;;;;;;;7.50;6.15;;;23.20;99.90;;;;;;5033935;28;20058;-64
2023/09/03 11:25:40;;;;;;;5.55;4.13;;;23.30;99.90;;;;;;5034888;28;20037;-64
2023/09/03 11:28:08;;;;;;;4.95;3.85;;;23.80;99.90;;;;;;5036023;28;20047;-64
2023/09/03 11:30:34;;;;;;;6.35;3.92;;;23.90;99.90;;;;;;5042267;28;20114;-64
2023/09/03 11:33:00;;;;;;;4.50;3.70;;;24.00;99.90;;;;;;5033323;28;20086;-64
2023/09/03 11:35:27;;;;;;;4.07;3.15;;;23.80;99.90;;;;;;5035956;28;20143;-64
2023/09/03 11:37:53;;;;;;;4.60;3.47;;;23.70;99.90;;;;;;5039911;28;20021;-64
2023/09/03 11:40:23;;;;;;;8.23;2.90;;;24.00;99.90;;;;;;5037198;28;20029;-65
2023/09/03 11:42:50;;;;;;;4.47;3.08;;;24.00;99.90;;;;;;5043671;28;20494;-65
2023/09/03 11:45:16;;;;;;;5.75;2.90;;;24.40;99.90;;;;;;5041528;28;20025;-64
2023/09/03 11:47:49;;;;;;;2.75;2.45;;;24.90;99.90;;;;;;5039116;28;20025;-64
2023/09/03 11:50:16;;;;;;;4.03;2.17;;;25.00;99.90;;;;;;5043523;28;20082;-64
2023/09/03 11:52:49;;;;;;;8.00;2.20;;;25.40;99.90;;;;;;5041123;28;20036;-65
2023/09/03 11:55:15;;;;;;;1.73;1.55;;;25.60;99.90;;;;;;5040845;28;20022;-65
2023/09/03 11:57:43;;;;;;;2.50;1.85;;;25.40;99.90;;;;;;5034302;28;20025;-64
2023/09/03 12:00:11;;;;;;;2.15;1.95;;;25.50;99.90;;;;;;5042349;28;20090;-64
2023/09/03 12:02:38;;;;;;;2.67;1.98;;;25.40;99.90;;;;;;5033556;28;20029;-64
2023/09/03 12:05:05;;;;;;;2.35;1.88;;;25.30;99.90;;;;;;5036927;28;20082;-65
2023/09/03 12:07:31;;;;;;;2.17;1.65;;;25.20;99.90;;;;;;5035504;28;20507;-64
2023/09/03 12:09:56;;;;;;;2.38;2.15;;;24.90;99.90;;;;;;5035135;28;20033;-64
2023/09/03 12:12:22;;;;;;;4.95;2.33;;;24.90;99.90;;;;;;5032409;28;20029;-64
2023/09/03 12:14:47;;;;;;;3.85;2.40;;;24.90;99.90;;;;;;5042591;28;20025;-64
2023/09/03 12:17:23;;;;;;;2.95;2.40;;;25.00;99.90;;;;;;5051432;28;20076;-64
2023/09/03 12:19:49;;;;;;;3.45;2.50;;;25.10;99.90;;;;;;5044968;28;20076;-64
2023/09/03 12:22:15;;;;;;;4.28;2.45;;;25.00;99.90;;;;;;5039155;28;20510;-64
2023/09/03 12:24:40;;;;;;;3.10;2.65;;;24.50;99.90;;;;;;5045149;28;20028;-64
2023/09/03 12:27:06;;;;;;;4.10;2.95;;;24.50;99.90;;;;;;5037262;28;20348;-64
2023/09/03 12:29:38;;;;;;;5.25;2.35;;;24.40;99.90;;;;;;5034060;28;20171;-64
2023/09/03 12:32:04;;;;;;;3.47;3.00;;;24.30;99.90;;;;;;5039279;28;20029;-64